Killington, VT

12:01 AM EST on February 27, 2017 (GMT -0500)
Fiore Property Services | | Change Station
Active Advisory: Flood Warning

Elev 1768 ft 43.65 °N, 72.79 °W | Updated 3 seconds ago

Clear
Clear
24.6 °F
Feels Like 16 °F
N
8.1
Wind Variable Wind from WNW
Gusts 9.8 mph

Today
High -- | Low -- °F
--% Chance of Precip.
Yesterday
High -- | Low -- °F
Precip. -- in
Pressure 30.21 in
Visibility 10.0 miles
Clouds Clear
Windchill 16 °F
Dew Point -2 °F
Humidity 30%
Rainfall 0.00 in
Snow Depth Not available.
6:30 AM 5:37 PM
New Moon, 0% visible
METAR KRUT 270456Z AUTO 22008KT 160V270 10SM CLR M02/M08 A3014 RMK AO2 SLP228 T10221078 400221022 FZRANO $
Pressure 30.21 in
Visibility 10.0 miles
Clouds Clear
Windchill 16 °F
Dew Point -2 °F
Humidity 30%
Rainfall 0.00 in
Snow Depth Not available.
6:30 AM 5:37 PM
New Moon, 0% visible
METAR KRUT 270456Z AUTO 22008KT 160V270 10SM CLR M02/M08 A3014 RMK AO2 SLP228 T10221078 400221022 FZRANO $

Get Your Daily Forecast Email!

Thanks for signing up!

Be on the lookout for a verification email in your inbox.

You'll start receiving the daily forecast at 8 AM.

×

10-Day Weather Forecast

Almanac

Astronomy

Feb. 27, 2017 Rise Set
Actual Time
Civil Twilight
Nautical Twilight
Astronomical Twilight
Moon
Length of Visible Light
Length of Day
Tomorrow will be .
, % of the Moon is Illuminated

Today's Extremes

State Highs State Lows

Community

WunderPhotos

Upload Photos

1,962,540 photos uploaded!

WunderBlog® & News

Nearby

Air Quality

  Air Quality AQ Index Pollutant
Not available.

Snow Depth

Station Depth Elevation

Earthquake Activity

City Distance Mag. Time & Date
Minimum magnitude displayed is 2.5.

Coastal Water Temperatures

Place Temperature

Stations

Nearby Weather Stations

Station Location Temp. Windchill Dew Point Humidity Wind Precip. Elev Updated Type
                   

Watches & Warnings

Flood Warning
Issued: 9:11 PM EST Feb. 26, 2017 – National Weather Service

The Flood Warning continues for
the Otter Creek at Center Rutland.
* At 8:45 PM Sunday the stage was 8.9 feet.
* Flood stage is 8.0 feet.
* Minor flooding is occurring and minor flooding is forecast.
* Forecast... the river will continue to fall to below flood stage by
Monday morning.
* Impact... at 9.0 feet... in Clarendon, low lying portions of South
Creek Road will flood between Walker Mountain Road and Wallingford,
and water will approach Alfrecha Road. In Pittsford, Elm Street and
depot Road will be under water. Field flooding will occur along
Dorr drive in Rutland, along with lowland flooding upstream to
Wallingford and downstream to Pittsford.


Lat... Lon 4384 7320 4384 7307 4360 7295 4339 7291
      4340 7304 4359 7307